createdAt,value
2023-03-07T00:00:17.997Z,980.83
2023-03-07T00:01:17.930Z,980.82
2023-03-07T00:02:18.072Z,980.79
2023-03-07T00:03:17.908Z,980.82
2023-03-07T00:04:17.902Z,980.82
2023-03-07T00:05:17.894Z,980.79
2023-03-07T00:06:17.878Z,980.80
2023-03-07T00:07:17.888Z,980.82
2023-03-07T00:08:17.871Z,980.75
2023-03-07T00:09:17.865Z,980.72
2023-03-07T00:10:17.843Z,980.74
2023-03-07T00:11:17.835Z,980.70
2023-03-07T00:12:17.821Z,980.72
2023-03-07T00:13:17.824Z,980.68
2023-03-07T00:14:17.819Z,980.69
2023-03-07T00:15:17.776Z,980.66
2023-03-07T00:16:17.774Z,980.68
2023-03-07T00:17:17.761Z,980.69
2023-03-07T00:18:17.882Z,980.62
2023-03-07T00:19:17.752Z,980.58
2023-03-07T00:20:17.765Z,980.59
2023-03-07T00:21:17.717Z,980.58
2023-03-07T00:22:17.726Z,980.59
2023-03-07T00:23:17.704Z,980.56
2023-03-07T00:24:17.685Z,980.55
2023-03-07T00:25:17.666Z,980.54
2023-03-07T00:26:17.681Z,980.54
2023-03-07T00:27:17.676Z,980.51
2023-03-07T00:28:17.651Z,980.53
2023-03-07T00:29:17.645Z,980.51
2023-03-07T00:30:17.628Z,980.57
2023-03-07T00:31:17.694Z,980.45
2023-03-07T00:32:17.651Z,980.45
2023-03-07T00:33:17.641Z,980.44
2023-03-07T00:34:17.619Z,980.45
2023-03-07T00:35:17.586Z,980.46
2023-03-07T00:36:17.548Z,980.40
2023-03-07T00:37:17.562Z,980.37
2023-03-07T00:38:17.544Z,980.35
2023-03-07T00:39:17.522Z,980.34
2023-03-07T00:40:17.500Z,980.35
2023-03-07T00:41:17.508Z,980.31
2023-03-07T00:42:17.517Z,980.29
2023-03-07T00:43:17.487Z,980.27
2023-03-07T00:44:17.490Z,980.24
2023-03-07T00:45:17.483Z,980.24
2023-03-07T00:46:17.435Z,980.17
2023-03-07T00:47:17.445Z,980.21
2023-03-07T00:48:17.413Z,980.20
2023-03-07T00:49:17.403Z,980.20
2023-03-07T00:50:17.418Z,980.19
2023-03-07T00:51:17.415Z,980.21
2023-03-07T00:52:17.423Z,980.21
2023-03-07T00:53:17.364Z,980.21
2023-03-07T00:54:17.370Z,980.24
2023-03-07T00:55:17.332Z,980.18
2023-03-07T00:56:17.336Z,980.15
2023-03-07T00:57:17.344Z,980.14
2023-03-07T00:58:17.308Z,980.13
2023-03-07T00:59:17.289Z,980.09
2023-03-07T01:00:17.306Z,980.09
2023-03-07T01:01:17.354Z,980.07
2023-03-07T01:02:17.274Z,980.08
2023-03-07T01:03:17.249Z,980.05
2023-03-07T01:04:17.250Z,980.00
2023-03-07T01:05:17.260Z,979.99
2023-03-07T01:06:17.245Z,979.97
2023-03-07T01:07:17.212Z,979.99
2023-03-07T01:08:17.193Z,979.90
2023-03-07T01:09:17.183Z,979.91
2023-03-07T01:10:17.200Z,979.86
2023-03-07T01:11:17.176Z,979.90
2023-03-07T01:12:17.150Z,979.84
2023-03-07T01:13:17.138Z,979.89
2023-03-07T01:14:17.142Z,979.77
2023-03-07T01:15:17.183Z,979.79
2023-03-07T01:16:17.123Z,979.70
2023-03-07T01:17:17.107Z,979.72
2023-03-07T01:18:17.099Z,979.74
2023-03-07T01:19:17.100Z,979.70
2023-03-07T01:20:17.065Z,979.72
2023-03-07T01:21:17.054Z,979.66
2023-03-07T01:22:17.114Z,979.69
2023-03-07T01:23:17.116Z,979.71
2023-03-07T01:24:17.018Z,979.65
2023-03-07T01:25:17.045Z,979.62
2023-03-07T01:26:17.001Z,979.60
2023-03-07T01:27:17.005Z,979.61
2023-03-07T01:28:16.977Z,979.57
2023-03-07T01:29:16.968Z,979.57
2023-03-07T01:30:16.966Z,979.58
2023-03-07T01:31:16.983Z,979.55
2023-03-07T01:32:16.981Z,979.51
2023-03-07T01:33:16.917Z,979.48
2023-03-07T01:34:16.912Z,979.49
2023-03-07T01:35:16.899Z,979.49
2023-03-07T01:36:17.032Z,979.39
2023-03-07T01:37:16.903Z,979.44
2023-03-07T01:38:16.882Z,979.44
2023-03-07T01:39:16.930Z,979.40
2023-03-07T01:40:16.852Z,979.39
2023-03-07T01:41:16.857Z,979.40
2023-03-07T01:42:16.840Z,979.39
2023-03-07T01:43:16.809Z,979.34
2023-03-07T01:44:16.821Z,979.28
2023-03-07T01:45:16.806Z,979.21
2023-03-07T01:46:16.853Z,979.28
2023-03-07T01:47:16.774Z,979.28
2023-03-07T01:48:16.757Z,979.29
2023-03-07T01:49:16.795Z,979.28
2023-03-07T01:50:16.892Z,979.23
2023-03-07T01:51:16.767Z,979.16
2023-03-07T01:52:16.723Z,979.12
2023-03-07T01:53:16.718Z,979.25
2023-03-07T01:54:16.700Z,979.12
2023-03-07T01:55:16.674Z,979.21
2023-03-07T01:56:16.681Z,979.16
2023-03-07T01:57:16.653Z,979.17
2023-03-07T01:58:16.659Z,979.16
2023-03-07T01:59:16.677Z,979.05
2023-03-07T02:00:16.652Z,979.09
2023-03-07T02:01:16.644Z,979.01
2023-03-07T02:02:16.615Z,979.02
2023-03-07T02:03:16.611Z,979.03
2023-03-07T02:04:16.605Z,978.99
2023-03-07T02:05:16.586Z,978.99
2023-03-07T02:06:16.553Z,978.95
2023-03-07T02:07:16.544Z,978.94
2023-03-07T02:08:16.553Z,978.89
2023-03-07T02:09:16.545Z,978.90
2023-03-07T02:10:16.529Z,978.92
2023-03-07T02:11:16.502Z,978.90
2023-03-07T02:12:16.496Z,978.91
2023-03-07T02:13:16.501Z,978.88
2023-03-07T02:14:16.465Z,978.87
2023-03-07T02:15:16.465Z,978.89
2023-03-07T02:16:16.496Z,978.73
2023-03-07T02:17:16.428Z,978.78
2023-03-07T02:18:16.451Z,978.78
2023-03-07T02:19:16.407Z,978.76
2023-03-07T02:20:16.411Z,978.76
2023-03-07T02:21:16.380Z,978.71
2023-03-07T02:22:16.382Z,978.65
2023-03-07T02:23:16.384Z,978.65
2023-03-07T02:24:16.372Z,978.67
2023-03-07T02:25:16.338Z,978.66
2023-03-07T02:26:16.346Z,978.61
2023-03-07T02:27:16.324Z,978.64
2023-03-07T02:28:16.350Z,978.58
2023-03-07T02:29:16.325Z,978.62
2023-03-07T02:30:16.294Z,978.58
2023-03-07T02:31:16.318Z,978.54
2023-03-07T02:32:16.344Z,978.55
2023-03-07T02:33:16.260Z,978.52
2023-03-07T02:34:16.259Z,978.50
2023-03-07T02:35:16.236Z,978.51
2023-03-07T02:36:16.222Z,978.55
2023-03-07T02:37:16.215Z,978.54
2023-03-07T02:38:16.225Z,978.49
2023-03-07T02:39:16.198Z,978.45
2023-03-07T02:40:16.177Z,978.44
2023-03-07T02:41:16.161Z,978.47
2023-03-07T02:42:16.177Z,978.42
2023-03-07T02:43:16.166Z,978.45
2023-03-07T02:44:16.540Z,978.46
2023-03-07T02:45:16.125Z,978.40
2023-03-07T02:46:16.192Z,978.37
2023-03-07T02:47:16.109Z,978.37
2023-03-07T02:48:16.100Z,978.42
2023-03-07T02:49:16.075Z,978.38
2023-03-07T02:50:16.081Z,978.36
2023-03-07T02:51:16.109Z,978.31
2023-03-07T02:52:16.041Z,978.42
2023-03-07T02:53:16.036Z,978.40
2023-03-07T02:54:16.051Z,978.46
2023-03-07T02:55:16.010Z,978.33
2023-03-07T02:56:16.016Z,978.36
2023-03-07T02:57:15.992Z,978.35
2023-03-07T02:58:15.999Z,978.31
2023-03-07T02:59:15.969Z,978.31
2023-03-07T03:00:15.985Z,978.33
2023-03-07T03:01:15.980Z,978.27
2023-03-07T03:02:15.959Z,978.22
2023-03-07T03:03:15.954Z,978.24
2023-03-07T03:04:15.956Z,978.28
2023-03-07T03:05:15.903Z,978.28
2023-03-07T03:06:15.892Z,978.25
2023-03-07T03:07:15.884Z,978.28
2023-03-07T03:08:15.896Z,978.20
2023-03-07T03:09:15.861Z,978.19
2023-03-07T03:10:15.852Z,978.22
2023-03-07T03:11:15.896Z,978.20
2023-03-07T03:12:15.831Z,978.21
2023-03-07T03:13:15.840Z,978.20
2023-03-07T03:14:15.852Z,978.19
2023-03-07T03:15:15.804Z,978.17
2023-03-07T03:16:15.824Z,978.16
2023-03-07T03:17:15.779Z,978.15
2023-03-07T03:18:15.772Z,978.14
2023-03-07T03:19:15.772Z,978.13
2023-03-07T03:20:15.775Z,978.17
2023-03-07T03:21:15.731Z,978.14
2023-03-07T03:22:15.723Z,978.11
2023-03-07T03:23:15.765Z,978.13
2023-03-07T03:24:15.727Z,978.14
2023-03-07T03:25:15.713Z,978.15
2023-03-07T03:26:15.683Z,978.17
2023-03-07T03:27:15.778Z,978.10
2023-03-07T03:28:15.653Z,978.18
2023-03-07T03:29:15.641Z,978.16
2023-03-07T03:30:15.654Z,978.08
2023-03-07T03:31:15.690Z,978.14
2023-03-07T03:32:15.668Z,978.11
2023-03-07T03:33:15.650Z,978.14
2023-03-07T03:34:15.603Z,978.09
2023-03-07T03:35:15.611Z,978.09
2023-03-07T03:36:15.584Z,978.08
2023-03-07T03:37:15.557Z,978.11
2023-03-07T03:38:15.537Z,978.10
2023-03-07T03:39:15.539Z,978.08
2023-03-07T03:40:15.548Z,978.09
2023-03-07T03:41:15.521Z,978.14
2023-03-07T03:42:15.524Z,978.10
2023-03-07T03:43:15.491Z,978.08
2023-03-07T03:44:15.508Z,978.08
2023-03-07T03:45:15.465Z,978.02
2023-03-07T03:46:15.470Z,978.00
2023-03-07T03:47:15.474Z,977.97
2023-03-07T03:48:15.461Z,978.00
2023-03-07T03:49:15.427Z,977.99
2023-03-07T03:50:15.409Z,978.03
2023-03-07T03:51:15.426Z,977.99
2023-03-07T03:52:15.411Z,977.99
2023-03-07T03:53:15.401Z,977.98
2023-03-07T03:54:15.360Z,977.97
2023-03-07T03:55:15.354Z,977.96
2023-03-07T03:56:15.343Z,977.96
2023-03-07T03:57:15.350Z,977.98
2023-03-07T03:58:15.317Z,978.00
2023-03-07T03:59:15.327Z,977.98
2023-03-07T04:00:15.306Z,977.95
2023-03-07T04:01:15.290Z,977.93
2023-03-07T04:02:15.506Z,977.92
2023-03-07T04:03:15.277Z,977.88
2023-03-07T04:04:15.253Z,977.87
2023-03-07T04:05:15.277Z,977.88
2023-03-07T04:06:15.267Z,977.88
2023-03-07T04:07:15.247Z,977.85
2023-03-07T04:08:15.214Z,977.89
2023-03-07T04:09:15.202Z,977.80
2023-03-07T04:10:15.199Z,977.82
2023-03-07T04:11:15.207Z,977.84
2023-03-07T04:12:15.168Z,977.84
2023-03-07T04:13:15.186Z,977.89
2023-03-07T04:14:15.145Z,977.86
2023-03-07T04:15:15.131Z,977.91
2023-03-07T04:16:15.302Z,977.87
2023-03-07T04:17:15.135Z,977.90
2023-03-07T04:18:15.132Z,977.85
2023-03-07T04:19:15.114Z,977.82
2023-03-07T04:20:15.096Z,977.81
2023-03-07T04:21:15.067Z,977.78
2023-03-07T04:22:15.063Z,977.80
2023-03-07T04:23:15.037Z,977.75
2023-03-07T04:24:15.059Z,977.80
2023-03-07T04:25:15.015Z,977.76
2023-03-07T04:26:15.100Z,977.72
2023-03-07T04:27:15.003Z,977.79
2023-03-07T04:28:14.995Z,977.75
2023-03-07T04:29:15.016Z,977.78
2023-03-07T04:30:14.964Z,977.74
2023-03-07T04:31:14.958Z,977.81
2023-03-07T04:32:14.949Z,977.74
2023-03-07T04:33:14.939Z,977.69
2023-03-07T04:34:14.977Z,977.70
2023-03-07T04:35:14.925Z,977.64
2023-03-07T04:36:14.962Z,977.66
2023-03-07T04:37:14.896Z,977.68
2023-03-07T04:38:14.877Z,977.69
2023-03-07T04:39:14.878Z,977.66
2023-03-07T04:40:14.910Z,977.63
2023-03-07T04:41:14.858Z,977.63
2023-03-07T04:42:14.843Z,977.62
2023-03-07T04:43:14.862Z,977.59
2023-03-07T04:44:14.880Z,977.60
2023-03-07T04:45:15.048Z,977.62
2023-03-07T04:46:14.901Z,977.58
2023-03-07T04:47:14.802Z,977.54
2023-03-07T04:48:14.790Z,977.57
2023-03-07T04:49:14.759Z,977.54
2023-03-07T04:50:14.997Z,977.54
2023-03-07T04:51:14.764Z,977.52
2023-03-07T04:52:14.732Z,977.48
2023-03-07T04:53:14.715Z,977.50
2023-03-07T04:54:14.877Z,977.54
2023-03-07T04:55:14.717Z,977.47
2023-03-07T04:56:14.728Z,977.51
2023-03-07T04:57:14.666Z,977.46
2023-03-07T04:58:14.667Z,977.51
2023-03-07T04:59:14.717Z,977.43
2023-03-07T05:00:14.672Z,977.45
2023-03-07T05:01:14.708Z,977.46
2023-03-07T05:02:14.655Z,977.43
2023-03-07T05:03:14.760Z,977.42
2023-03-07T05:04:14.669Z,977.40
2023-03-07T05:05:14.600Z,977.52
2023-03-07T05:06:14.596Z,977.41
2023-03-07T05:07:14.575Z,977.40
2023-03-07T05:08:14.580Z,977.41
2023-03-07T05:09:14.606Z,977.35
2023-03-07T05:10:14.673Z,977.36
2023-03-07T05:11:14.525Z,977.36
2023-03-07T05:12:14.506Z,977.38
2023-03-07T05:13:14.496Z,977.35
2023-03-07T05:14:14.719Z,977.33
2023-03-07T05:15:14.471Z,977.39
2023-03-07T05:16:14.727Z,977.29
2023-03-07T05:17:14.659Z,977.36
2023-03-07T05:18:14.507Z,977.31
2023-03-07T05:19:14.442Z,977.34
2023-03-07T05:20:14.415Z,977.27
2023-03-07T05:21:14.417Z,977.29
2023-03-07T05:22:14.411Z,977.29
2023-03-07T05:23:14.556Z,977.26
2023-03-07T05:24:14.562Z,977.28
2023-03-07T05:25:14.386Z,977.22
2023-03-07T05:26:14.346Z,977.20
2023-03-07T05:27:14.334Z,977.23
2023-03-07T05:28:14.353Z,977.21
2023-03-07T05:29:14.428Z,977.21
2023-03-07T05:30:14.307Z,977.25
2023-03-07T05:31:14.347Z,977.21
2023-03-07T05:32:14.310Z,977.18
2023-03-07T05:33:14.283Z,977.19
2023-03-07T05:34:14.258Z,977.18
2023-03-07T05:35:14.266Z,977.18
2023-03-07T05:36:14.256Z,977.18
2023-03-07T05:37:14.221Z,977.20
2023-03-07T05:38:14.240Z,977.17
2023-03-07T05:39:14.235Z,977.15
2023-03-07T05:40:14.225Z,977.14
2023-03-07T05:41:14.199Z,977.11
2023-03-07T05:42:14.189Z,977.04
2023-03-07T05:43:14.225Z,977.09
2023-03-07T05:44:14.148Z,977.04
2023-03-07T05:45:14.157Z,977.10
2023-03-07T05:46:14.222Z,977.06
2023-03-07T05:47:14.118Z,977.03
2023-03-07T05:48:14.109Z,977.07
2023-03-07T05:49:14.118Z,977.07
2023-03-07T05:50:14.078Z,977.02
2023-03-07T05:51:14.084Z,976.97
2023-03-07T05:52:14.071Z,977.04
2023-03-07T05:53:14.059Z,977.00
2023-03-07T05:54:14.091Z,977.02
2023-03-07T05:55:14.025Z,977.03
2023-03-07T05:56:14.044Z,976.99
2023-03-07T05:57:14.009Z,976.95
2023-03-07T05:58:14.100Z,976.95
2023-03-07T05:59:14.050Z,976.94
2023-03-07T06:00:14.514Z,976.96
2023-03-07T06:01:13.977Z,976.96
2023-03-07T06:02:14.079Z,976.93
2023-03-07T06:03:13.935Z,976.93
2023-03-07T06:04:13.935Z,976.93
2023-03-07T06:05:13.935Z,976.94
2023-03-07T06:06:13.938Z,976.91
2023-03-07T06:07:22.014Z,976.90
2023-03-07T06:08:13.930Z,976.95
2023-03-07T06:09:13.869Z,976.91
2023-03-07T06:10:13.931Z,976.94
2023-03-07T06:11:13.857Z,976.96
2023-03-07T06:12:13.887Z,976.91
2023-03-07T06:13:13.843Z,976.91
2023-03-07T06:14:13.840Z,976.90
2023-03-07T06:15:13.817Z,976.94
2023-03-07T06:16:13.920Z,976.95
2023-03-07T06:17:13.800Z,976.89
2023-03-07T06:18:13.780Z,976.92
2023-03-07T06:19:13.764Z,976.94
2023-03-07T06:20:13.788Z,976.92
2023-03-07T06:21:13.776Z,976.92
2023-03-07T06:22:13.782Z,976.89
2023-03-07T06:23:13.725Z,976.87
2023-03-07T06:24:13.714Z,976.92
2023-03-07T06:25:13.701Z,976.89
2023-03-07T06:26:13.712Z,976.90
2023-03-07T06:27:13.675Z,976.92
2023-03-07T06:28:13.702Z,976.89
2023-03-07T06:29:13.660Z,976.95
2023-03-07T06:30:13.642Z,976.92
2023-03-07T06:31:13.720Z,976.89
2023-03-07T06:32:13.672Z,976.91
2023-03-07T06:33:13.616Z,976.91
2023-03-07T06:34:13.616Z,976.90
2023-03-07T06:35:13.601Z,976.87
2023-03-07T06:36:13.588Z,976.86
2023-03-07T06:37:13.591Z,976.88
2023-03-07T06:38:13.592Z,976.91
2023-03-07T06:39:13.551Z,976.88
2023-03-07T06:40:13.540Z,976.87
2023-03-07T06:41:13.524Z,976.83
2023-03-07T06:42:13.559Z,976.89
2023-03-07T06:43:13.525Z,976.88
2023-03-07T06:44:13.500Z,976.87
2023-03-07T06:45:13.513Z,976.94
2023-03-07T06:46:13.463Z,976.95
2023-03-07T06:47:13.478Z,976.81
2023-03-07T06:48:13.466Z,976.84
2023-03-07T06:49:13.437Z,976.87
2023-03-07T06:50:13.462Z,976.89
2023-03-07T06:51:13.436Z,976.90
2023-03-07T06:52:13.443Z,976.87
2023-03-07T06:53:13.390Z,976.87
2023-03-07T06:54:13.388Z,976.89
2023-03-07T06:55:13.380Z,976.88
2023-03-07T06:56:13.393Z,976.83
2023-03-07T06:57:13.361Z,976.85
2023-03-07T06:58:13.389Z,976.86
2023-03-07T06:59:13.330Z,976.82
2023-03-07T07:00:13.320Z,976.82
2023-03-07T07:01:13.324Z,976.84
2023-03-07T07:02:13.403Z,976.84
2023-03-07T07:03:13.444Z,976.87
2023-03-07T07:04:13.271Z,976.84
2023-03-07T07:05:13.282Z,976.85
2023-03-07T07:06:13.274Z,976.85
2023-03-07T07:07:13.239Z,976.84
2023-03-07T07:08:13.245Z,976.83
2023-03-07T07:09:13.227Z,976.83
2023-03-07T07:10:13.262Z,976.86
2023-03-07T07:11:13.214Z,976.82
2023-03-07T07:12:13.179Z,976.83
2023-03-07T07:13:13.187Z,976.84
2023-03-07T07:14:13.198Z,976.82
2023-03-07T07:15:13.178Z,976.77
2023-03-07T07:16:13.178Z,976.82
2023-03-07T07:17:13.136Z,976.84
2023-03-07T07:18:13.109Z,976.80
2023-03-07T07:19:13.120Z,976.84
2023-03-07T07:20:13.124Z,976.79
2023-03-07T07:21:13.091Z,976.77
2023-03-07T07:22:13.145Z,976.80
2023-03-07T07:23:13.083Z,976.78
2023-03-07T07:24:13.073Z,976.81
2023-03-07T07:25:13.063Z,976.84
2023-03-07T07:26:13.028Z,976.81
2023-03-07T07:27:13.028Z,976.78
2023-03-07T07:28:13.004Z,976.75
2023-03-07T07:29:13.018Z,976.75
2023-03-07T07:30:13.017Z,976.77
2023-03-07T07:31:12.976Z,976.75
2023-03-07T07:32:13.158Z,976.73
2023-03-07T07:33:13.119Z,976.77
2023-03-07T07:34:12.960Z,976.75
2023-03-07T07:35:12.989Z,976.78
2023-03-07T07:36:12.966Z,976.73
2023-03-07T07:37:12.998Z,976.75
2023-03-07T07:38:12.934Z,976.74
2023-03-07T07:39:12.922Z,976.76
2023-03-07T07:40:12.899Z,976.66
2023-03-07T07:41:12.933Z,976.70
2023-03-07T07:42:12.872Z,976.69
2023-03-07T07:43:12.916Z,976.65
2023-03-07T07:44:12.889Z,976.68
2023-03-07T07:45:12.835Z,976.70
2023-03-07T07:46:13.075Z,976.69
2023-03-07T07:47:12.799Z,976.69
2023-03-07T07:48:12.805Z,976.68
2023-03-07T07:49:12.781Z,976.66
2023-03-07T07:50:12.788Z,976.63
2023-03-07T07:51:12.756Z,976.61
2023-03-07T07:52:12.776Z,976.61
2023-03-07T07:53:12.741Z,976.64
2023-03-07T07:54:12.738Z,976.61
2023-03-07T07:55:12.746Z,976.69
2023-03-07T07:56:12.750Z,976.66
2023-03-07T07:57:12.723Z,976.62
2023-03-07T07:58:12.682Z,976.67
2023-03-07T07:59:12.678Z,976.65
2023-03-07T08:00:12.657Z,976.62
2023-03-07T08:01:12.669Z,976.57
2023-03-07T08:02:12.672Z,976.59
2023-03-07T08:03:12.775Z,976.53
2023-03-07T08:04:12.617Z,976.54
2023-03-07T08:05:12.654Z,976.56
2023-03-07T08:06:12.593Z,976.57
2023-03-07T08:07:12.582Z,976.55
2023-03-07T08:08:12.586Z,976.52
2023-03-07T08:09:12.562Z,976.55
2023-03-07T08:10:12.554Z,976.41
2023-03-07T08:11:12.574Z,976.49
2023-03-07T08:12:12.536Z,976.55
2023-03-07T08:13:12.516Z,976.46
2023-03-07T08:14:12.518Z,976.46
2023-03-07T08:15:12.494Z,976.46
2023-03-07T08:16:12.576Z,976.45
2023-03-07T08:17:12.484Z,976.41
2023-03-07T08:18:12.545Z,976.48
2023-03-07T08:19:12.450Z,976.42
2023-03-07T08:20:12.448Z,976.44
2023-03-07T08:21:12.427Z,976.41
2023-03-07T08:22:12.454Z,976.44
2023-03-07T08:23:12.423Z,976.44
2023-03-07T08:24:12.419Z,976.48
2023-03-07T08:25:12.384Z,976.47
2023-03-07T08:26:12.376Z,976.43
2023-03-07T08:27:12.364Z,976.40
2023-03-07T08:28:12.385Z,976.40
2023-03-07T08:29:12.342Z,976.39
2023-03-07T08:30:12.356Z,976.47
2023-03-07T08:31:12.393Z,976.42
2023-03-07T08:32:12.356Z,976.44
2023-03-07T08:33:12.305Z,976.42
2023-03-07T08:34:12.331Z,976.47
2023-03-07T08:35:12.272Z,976.49
2023-03-07T08:36:12.292Z,976.49
2023-03-07T08:37:12.270Z,976.42
2023-03-07T08:38:12.246Z,976.46
2023-03-07T08:39:12.232Z,976.43
2023-03-07T08:40:12.246Z,976.38
2023-03-07T08:41:12.206Z,976.38
2023-03-07T08:42:12.275Z,976.37
2023-03-07T08:43:12.213Z,976.44
2023-03-07T08:44:12.184Z,976.35
2023-03-07T08:45:12.164Z,976.36
2023-03-07T08:46:12.172Z,976.33
2023-03-07T08:47:12.136Z,976.34
2023-03-07T08:48:12.145Z,976.30
2023-03-07T08:49:12.142Z,976.32
2023-03-07T08:50:12.204Z,976.30
2023-03-07T08:51:12.115Z,976.37
2023-03-07T08:52:12.084Z,976.27
2023-03-07T08:53:12.064Z,976.31
2023-03-07T08:54:12.076Z,976.29
2023-03-07T08:55:12.051Z,976.33
2023-03-07T08:56:12.041Z,976.26
2023-03-07T08:57:12.041Z,976.19
2023-03-07T08:58:12.013Z,976.26
2023-03-07T08:59:12.028Z,976.31
2023-03-07T09:00:11.998Z,976.26
2023-03-07T09:01:12.035Z,976.32
2023-03-07T09:02:11.994Z,976.27
2023-03-07T09:03:11.966Z,976.21
2023-03-07T09:04:11.988Z,976.30
2023-03-07T09:05:11.947Z,976.30
2023-03-07T09:06:11.956Z,976.27
2023-03-07T09:07:11.955Z,976.23
2023-03-07T09:08:11.930Z,976.27
2023-03-07T09:09:11.888Z,976.41
2023-03-07T09:10:11.921Z,976.38
2023-03-07T09:11:11.895Z,976.27
2023-03-07T09:12:11.848Z,976.23
2023-03-07T09:13:11.839Z,976.20
2023-03-07T09:14:11.827Z,976.14
2023-03-07T09:15:11.817Z,976.21
2023-03-07T09:16:11.872Z,976.20
2023-03-07T09:17:11.820Z,976.20
2023-03-07T09:18:11.788Z,976.23
2023-03-07T09:19:11.788Z,976.25
2023-03-07T09:20:11.775Z,976.22
2023-03-07T09:21:11.783Z,976.23
2023-03-07T09:22:11.788Z,976.18
2023-03-07T09:23:11.737Z,976.23
2023-03-07T09:24:11.734Z,976.18
2023-03-07T09:25:11.722Z,976.14
2023-03-07T09:26:11.730Z,976.18
2023-03-07T09:27:11.688Z,976.15
2023-03-07T09:28:11.696Z,976.19
2023-03-07T09:29:11.692Z,976.13
2023-03-07T09:30:11.664Z,976.08
2023-03-07T09:31:11.751Z,976.10
2023-03-07T09:32:11.775Z,976.11
2023-03-07T09:33:11.651Z,976.17
2023-03-07T09:34:11.618Z,976.01
2023-03-07T09:35:11.605Z,975.98
2023-03-07T09:36:11.612Z,976.09
2023-03-07T09:37:11.575Z,976.04
2023-03-07T09:38:11.632Z,975.98
2023-03-07T09:39:11.566Z,976.04
2023-03-07T09:40:11.546Z,976.00
2023-03-07T09:41:11.578Z,976.10
2023-03-07T09:42:11.555Z,976.05
2023-03-07T09:43:11.520Z,975.98
2023-03-07T09:44:11.500Z,976.01
2023-03-07T09:45:11.493Z,975.99
2023-03-07T09:46:11.533Z,976.02
2023-03-07T09:47:12.646Z,975.97
2023-03-07T09:48:11.555Z,975.99
2023-03-07T09:49:11.449Z,975.94
2023-03-07T09:50:11.444Z,975.91
2023-03-07T09:51:12.053Z,975.97
2023-03-07T09:52:11.434Z,976.02
2023-03-07T09:53:11.417Z,975.92
2023-03-07T09:54:11.409Z,975.98
2023-03-07T09:55:11.379Z,976.01
2023-03-07T09:56:11.371Z,975.99
2023-03-07T09:57:11.381Z,976.02
2023-03-07T09:58:11.355Z,976.00
2023-03-07T09:59:22.389Z,975.92
2023-03-07T10:00:12.324Z,975.92
2023-03-07T10:01:11.311Z,975.97
2023-03-07T10:02:11.319Z,975.95
2023-03-07T10:03:11.340Z,975.91
2023-03-07T10:04:11.350Z,975.92
2023-03-07T10:05:11.287Z,975.89
2023-03-07T10:06:11.299Z,975.92
2023-03-07T10:07:11.283Z,975.85
2023-03-07T10:08:11.240Z,975.88
2023-03-07T10:09:11.279Z,975.82
2023-03-07T10:10:11.254Z,975.85
2023-03-07T10:11:11.207Z,975.77
2023-03-07T10:12:11.230Z,975.78
2023-03-07T10:13:11.193Z,975.90
2023-03-07T10:14:11.218Z,975.81
2023-03-07T10:15:11.170Z,975.80
2023-03-07T10:16:11.222Z,975.73
2023-03-07T10:17:11.302Z,975.68
2023-03-07T10:18:11.124Z,975.76
2023-03-07T10:19:11.130Z,975.72
2023-03-07T10:20:11.107Z,975.74
2023-03-07T10:21:11.096Z,975.74
2023-03-07T10:22:11.107Z,975.72
2023-03-07T10:23:11.073Z,975.67
2023-03-07T10:24:11.061Z,975.69
2023-03-07T10:25:11.053Z,975.72
2023-03-07T10:26:11.050Z,975.66
2023-03-07T10:27:11.048Z,975.62
2023-03-07T10:28:11.016Z,975.66
2023-03-07T10:29:11.036Z,975.77
2023-03-07T10:30:10.986Z,975.72
2023-03-07T10:31:10.992Z,975.76
2023-03-07T10:32:11.090Z,975.70
2023-03-07T10:33:10.983Z,975.78
2023-03-07T10:34:15.501Z,975.77
2023-03-07T10:35:11.964Z,975.81
2023-03-07T10:36:10.946Z,975.76
2023-03-07T10:37:10.911Z,975.82
2023-03-07T10:38:10.900Z,975.68
2023-03-07T10:39:10.903Z,975.68
2023-03-07T10:40:10.902Z,975.67
2023-03-07T10:41:10.861Z,975.70
2023-03-07T10:42:10.889Z,975.78
2023-03-07T10:43:10.880Z,975.76
2023-03-07T10:44:10.831Z,975.76
2023-03-07T10:45:12.533Z,975.71
2023-03-07T10:46:23.963Z,975.68
2023-03-07T10:47:11.854Z,975.77
2023-03-07T10:48:10.795Z,975.70
2023-03-07T10:49:11.099Z,975.69
2023-03-07T10:50:10.775Z,975.66
2023-03-07T10:51:10.775Z,975.66
2023-03-07T10:52:10.741Z,975.67
2023-03-07T10:53:10.738Z,975.67
2023-03-07T10:54:10.744Z,975.70
2023-03-07T10:55:10.711Z,975.67
2023-03-07T10:56:10.705Z,975.69
2023-03-07T10:57:10.693Z,975.71
2023-03-07T10:58:11.506Z,975.68
2023-03-07T10:59:10.679Z,975.71
2023-03-07T11:00:10.652Z,975.69
2023-03-07T11:01:10.714Z,975.71
2023-03-07T11:02:10.631Z,975.66
2023-03-07T11:03:10.637Z,975.68
2023-03-07T11:04:10.638Z,975.67
2023-03-07T11:05:10.715Z,975.66
2023-03-07T11:06:10.737Z,975.70
2023-03-07T11:07:10.584Z,975.68
2023-03-07T11:08:10.560Z,975.72
2023-03-07T11:09:10.577Z,975.68
2023-03-07T11:10:10.569Z,975.67
2023-03-07T11:11:10.525Z,975.68
2023-03-07T11:12:10.603Z,975.73
2023-03-07T11:13:10.511Z,975.77
2023-03-07T11:14:11.803Z,975.82
2023-03-07T11:15:10.579Z,975.86
2023-03-07T11:16:12.061Z,975.90
2023-03-07T11:17:10.510Z,975.81
2023-03-07T11:18:10.519Z,975.86
2023-03-07T11:19:10.457Z,975.90
2023-03-07T11:20:10.481Z,975.91
2023-03-07T11:21:10.427Z,975.97
2023-03-07T11:22:10.438Z,976.08
2023-03-07T11:23:10.534Z,976.05
2023-03-07T11:24:10.456Z,976.12
2023-03-07T11:25:10.366Z,976.18
2023-03-07T11:26:10.387Z,976.20
2023-03-07T11:27:10.350Z,976.23
2023-03-07T11:28:10.333Z,976.19
2023-03-07T11:29:10.331Z,976.24
2023-03-07T11:30:10.369Z,976.20
2023-03-07T11:31:10.382Z,976.19
2023-03-07T11:32:10.437Z,976.21
2023-03-07T11:33:10.300Z,976.22
2023-03-07T11:34:10.291Z,976.24
2023-03-07T11:35:10.280Z,976.21
2023-03-07T11:36:10.297Z,976.29
2023-03-07T11:37:10.284Z,976.26
2023-03-07T11:38:10.223Z,976.27
2023-03-07T11:39:10.235Z,976.29
2023-03-07T11:40:10.234Z,976.33
2023-03-07T11:41:10.201Z,976.27
2023-03-07T11:42:10.192Z,976.26
2023-03-07T11:43:10.184Z,976.22
2023-03-07T11:44:10.161Z,976.28
2023-03-07T11:45:10.175Z,976.29
2023-03-07T11:46:10.220Z,976.32
2023-03-07T11:47:10.145Z,976.28
2023-03-07T11:48:10.159Z,976.32
2023-03-07T11:49:10.110Z,976.33
2023-03-07T11:50:10.141Z,976.37
2023-03-07T11:51:10.084Z,976.37
2023-03-07T11:52:10.077Z,976.39
2023-03-07T11:53:10.086Z,976.40
2023-03-07T11:54:10.046Z,976.35
2023-03-07T11:55:10.065Z,976.41
2023-03-07T11:56:10.047Z,976.43
2023-03-07T11:57:10.034Z,976.43
2023-03-07T11:58:10.014Z,976.47
2023-03-07T11:59:10.019Z,976.44
2023-03-07T12:00:10.032Z,976.48
2023-03-07T12:01:11.945Z,976.48
2023-03-07T12:02:10.026Z,976.46
2023-03-07T12:03:10.019Z,976.46
2023-03-07T12:04:09.967Z,976.50
2023-03-07T12:05:09.970Z,976.43
2023-03-07T12:06:09.974Z,976.50
2023-03-07T12:07:09.930Z,976.42
2023-03-07T12:08:18.068Z,976.42
2023-03-07T12:09:09.919Z,976.43
2023-03-07T12:10:09.897Z,976.43
2023-03-07T12:11:09.878Z,976.47
2023-03-07T12:12:09.915Z,976.42
2023-03-07T12:13:09.862Z,976.47
2023-03-07T12:14:09.892Z,976.38
2023-03-07T12:15:09.835Z,976.40
2023-03-07T12:16:09.842Z,976.40
2023-03-07T12:17:09.804Z,976.40
2023-03-07T12:18:09.821Z,976.41
2023-03-07T12:19:09.805Z,976.38
2023-03-07T12:20:09.768Z,976.40
2023-03-07T12:21:09.775Z,976.41
2023-03-07T12:22:09.751Z,976.44
2023-03-07T12:23:09.741Z,976.45
2023-03-07T12:24:09.806Z,976.48
2023-03-07T12:25:09.727Z,976.46
2023-03-07T12:26:09.709Z,976.44
2023-03-07T12:27:09.709Z,976.45
2023-03-07T12:28:09.691Z,976.44